TimeCDT,TemperatureF,Dew PointF,Humidity,Sea Level PressureIn,VisibilityMPH,Wind Direction,Wind SpeedMPH,Gust SpeedMPH,PrecipitationIn,Events,Conditions,WindDirDegrees,DateUTC
12:15 AM,64.4,51.8,64,29.88,10.0,SW,5.8,-,N/A,,Scattered Clouds,220,2013-05-14 05:15:00
12:35 AM,64.4,51.8,64,29.88,10.0,SW,5.8,-,N/A,,Scattered Clouds,220,2013-05-14 05:35:00
12:55 AM,64.4,51.8,64,29.88,10.0,SSW,4.6,-,N/A,,Clear,210,2013-05-14 05:55:00
1:15 AM,62.6,51.8,68,29.87,10.0,SSW,5.8,-,N/A,,Scattered Clouds,200,2013-05-14 06:15:00
1:35 AM,60.8,50.0,68,29.86,10.0,South,6.9,-,N/A,,Scattered Clouds,190,2013-05-14 06:35:00
1:55 AM,60.8,50.0,68,29.86,10.0,South,6.9,-,N/A,,Scattered Clouds,190,2013-05-14 06:55:00
2:15 AM,62.6,51.8,68,29.85,10.0,SSW,6.9,-,N/A,,Scattered Clouds,200,2013-05-14 07:15:00
2:35 AM,60.8,51.8,72,29.84,10.0,SSW,5.8,-,N/A,,Scattered Clouds,210,2013-05-14 07:35:00
2:55 AM,60.8,51.8,72,29.84,10.0,SSW,3.5,-,N/A,,Scattered Clouds,210,2013-05-14 07:55:00
3:15 AM,60.8,51.8,72,29.84,10.0,SSW,5.8,-,N/A,,Scattered Clouds,200,2013-05-14 08:15:00
3:35 AM,62.6,51.8,68,29.84,10.0,South,4.6,-,N/A,,Scattered Clouds,190,2013-05-14 08:35:00
3:55 AM,60.8,51.8,72,29.84,10.0,Calm,Calm,-,N/A,,Scattered Clouds,0,2013-05-14 08:55:00
4:15 AM,57.2,50.0,77,29.83,10.0,Calm,Calm,-,N/A,,Clear,0,2013-05-14 09:15:00
4:35 AM,57.2,48.2,72,29.83,10.0,South,4.6,-,N/A,,Scattered Clouds,190,2013-05-14 09:35:00
4:55 AM,55.4,48.2,77,29.83,10.0,Calm,Calm,-,N/A,,Clear,0,2013-05-14 09:55:00
5:15 AM,55.4,48.2,77,29.82,10.0,Calm,Calm,-,N/A,,Scattered Clouds,0,2013-05-14 10:15:00
5:35 AM,57.2,50.0,77,29.82,10.0,Calm,Calm,-,N/A,,Scattered Clouds,0,2013-05-14 10:35:00
5:55 AM,55.4,48.2,77,29.82,10.0,Calm,Calm,-,N/A,,Scattered Clouds,0,2013-05-14 10:55:00
6:15 AM,53.6,48.2,82,29.82,10.0,Calm,Calm,-,N/A,,Clear,0,2013-05-14 11:15:00
6:35 AM,53.6,48.2,82,29.82,10.0,Calm,Calm,-,N/A,,Clear,0,2013-05-14 11:35:00
6:55 AM,55.4,50.0,82,29.82,10.0,Calm,Calm,-,N/A,,Clear,0,2013-05-14 11:55:00
7:15 AM,59.0,51.8,77,29.82,10.0,Calm,Calm,-,N/A,,Clear,0,2013-05-14 12:15:00
7:35 AM,62.6,53.6,72,29.82,10.0,Calm,Calm,-,N/A,,Clear,0,2013-05-14 12:35:00
7:55 AM,64.4,53.6,68,29.82,10.0,South,3.5,-,N/A,,Clear,180,2013-05-14 12:55:00
8:15 AM,68.0,55.4,64,29.82,10.0,South,3.5,-,N/A,,Clear,180,2013-05-14 13:15:00
8:35 AM,71.6,55.4,57,29.81,10.0,SSW,4.6,-,N/A,,Clear,200,2013-05-14 13:35:00
8:55 AM,73.4,55.4,53,29.81,10.0,SSW,8.1,-,N/A,,Clear,210,2013-05-14 13:55:00
9:15 AM,75.2,53.6,47,29.80,10.0,SW,8.1,-,N/A,,Clear,220,2013-05-14 14:15:00
9:35 AM,77.0,53.6,44,29.80,10.0,SW,10.4,-,N/A,,Clear,220,2013-05-14 14:35:00
9:55 AM,78.8,51.8,39,29.80,10.0,SW,9.2,-,N/A,,Clear,220,2013-05-14 14:55:00
10:15 AM,80.6,51.8,37,29.79,10.0,SSW,10.4,-,N/A,,Clear,210,2013-05-14 15:15:00
10:35 AM,82.4,48.2,30,29.79,10.0,South,9.2,-,N/A,,Clear,190,2013-05-14 15:35:00
10:55 AM,84.2,48.2,29,29.79,10.0,SSW,10.4,-,N/A,,Clear,200,2013-05-14 15:55:00
11:15 AM,87.8,46.4,24,29.78,10.0,SSW,10.4,-,N/A,,Clear,200,2013-05-14 16:15:00
11:35 AM,89.6,46.4,22,29.78,10.0,South,10.4,16.1,N/A,,Clear,180,2013-05-14 16:35:00
11:55 AM,89.6,44.6,21,29.77,10.0,SSW,13.8,17.3,N/A,,Clear,200,2013-05-14 16:55:00
12:15 PM,91.4,42.8,18,29.77,10.0,SSW,15.0,-,N/A,,Clear,210,2013-05-14 17:15:00
12:35 PM,93.2,41.0,16,29.76,10.0,SSW,13.8,20.7,N/A,,Clear,200,2013-05-14 17:35:00
12:55 PM,95.0,39.2,14,29.75,10.0,SSW,15.0,19.6,N/A,,Clear,200,2013-05-14 17:55:00
1:15 PM,96.8,33.8,11,29.75,10.0,SSW,19.6,25.3,N/A,,Clear,200,2013-05-14 18:15:00
1:35 PM,98.6,26.6,8,29.74,10.0,SSW,19.6,24.2,N/A,,Clear,200,2013-05-14 18:35:00
1:55 PM,98.6,24.8,7,29.73,10.0,SSW,19.6,27.6,N/A,,Clear,200,2013-05-14 18:55:00
2:15 PM,98.6,17.6,5,29.72,10.0,SSW,25.3,29.9,N/A,,Clear,210,2013-05-14 19:15:00
2:35 PM,98.6,17.6,5,29.72,10.0,SSW,23.0,29.9,N/A,,Clear,210,2013-05-14 19:35:00
2:55 PM,98.6,23.0,7,29.71,10.0,SSW,20.7,28.8,N/A,,Clear,200,2013-05-14 19:55:00
3:15 PM,98.6,23.0,7,29.71,10.0,SSW,21.9,29.9,N/A,,Clear,210,2013-05-14 20:15:00
3:35 PM,98.6,26.6,8,29.71,10.0,SSW,23.0,29.9,N/A,,Clear,200,2013-05-14 20:35:00
3:55 PM,98.6,26.6,8,29.70,10.0,SSW,23.0,29.9,N/A,,Clear,210,2013-05-14 20:55:00
4:15 PM,98.6,12.2,4,29.70,10.0,SW,23.0,34.5,N/A,,Clear,230,2013-05-14 21:15:00
4:35 PM,98.6,15.8,5,29.70,10.0,SW,28.8,35.7,N/A,,Clear,230,2013-05-14 21:35:00
4:55 PM,98.6,12.2,4,29.70,10.0,WSW,26.5,34.5,N/A,,Clear,240,2013-05-14 21:55:00
5:15 PM,98.6,12.2,4,29.69,10.0,SW,27.6,35.7,N/A,,Clear,230,2013-05-14 22:15:00
5:35 PM,98.6,12.2,4,29.69,10.0,WSW,21.9,33.4,N/A,,Clear,240,2013-05-14 22:35:00
5:55 PM,98.6,10.4,4,29.68,10.0,SW,26.5,33.4,N/A,,Clear,220,2013-05-14 22:55:00
6:15 PM,96.8,15.8,5,29.68,10.0,SW,24.2,31.1,N/A,,Clear,230,2013-05-14 23:15:00
6:35 PM,96.8,15.8,5,29.68,10.0,SW,25.3,33.4,N/A,,Clear,230,2013-05-14 23:35:00
6:55 PM,95.0,19.4,6,29.68,10.0,SW,25.3,34.5,N/A,,Clear,230,2013-05-14 23:55:00
7:15 PM,93.2,26.6,9,29.68,10.0,SW,20.7,25.3,N/A,,Clear,230,2013-05-15 00:15:00
7:35 PM,91.4,26.6,10,29.69,10.0,SW,18.4,31.1,N/A,,Clear,230,2013-05-15 00:35:00
7:55 PM,89.6,30.2,12,29.70,10.0,SW,18.4,21.9,N/A,,Clear,230,2013-05-15 00:55:00
8:15 PM,87.8,37.4,17,29.70,10.0,SW,20.7,27.6,N/A,,Clear,220,2013-05-15 01:15:00
8:35 PM,86.0,39.2,19,29.71,10.0,SW,18.4,25.3,N/A,,Scattered Clouds,220,2013-05-15 01:35:00
8:55 PM,84.2,42.8,23,29.72,10.0,SW,13.8,-,N/A,,Scattered Clouds,220,2013-05-15 01:55:00
9:15 PM,82.4,42.8,25,29.74,10.0,SW,13.8,-,N/A,,Clear,220,2013-05-15 02:15:00
9:35 PM,82.4,44.6,26,29.75,10.0,SW,13.8,-,N/A,,Scattered Clouds,220,2013-05-15 02:35:00
9:55 PM,80.6,46.4,30,29.76,10.0,SSW,13.8,-,N/A,,Scattered Clouds,210,2013-05-15 02:55:00
10:15 PM,78.8,46.4,32,29.77,10.0,SW,11.5,-,N/A,,Scattered Clouds,220,2013-05-15 03:15:00
10:35 PM,78.8,46.4,32,29.77,10.0,SW,12.7,-,N/A,,Scattered Clouds,220,2013-05-15 03:35:00
10:55 PM,77.0,46.4,34,29.77,10.0,SW,11.5,-,N/A,,Scattered Clouds,220,2013-05-15 03:55:00
11:15 PM,75.2,44.6,34,29.77,10.0,SW,10.4,-,N/A,,Clear,220,2013-05-15 04:15:00
11:35 PM,75.2,44.6,34,29.77,10.0,SW,9.2,-,N/A,,Clear,220,2013-05-15 04:35:00
11:55 PM,73.4,46.4,38,29.80,10.0,NW,6.9,-,N/A,,Clear,310,2013-05-15 04:55:00